createdAt,value
2022-08-25T00:00:41.928Z,1.95
2022-08-25T00:05:46.741Z,2.00
2022-08-25T00:10:57.742Z,2.17
2022-08-25T00:16:06.549Z,2.28
2022-08-25T00:21:09.959Z,2.45
2022-08-25T00:26:15.684Z,2.38
2022-08-25T00:31:21.288Z,2.08
2022-08-25T00:36:24.187Z,2.22
2022-08-25T00:41:28.593Z,2.10
2022-08-25T00:46:34.761Z,2.13
2022-08-25T00:51:40.751Z,1.88
2022-08-25T00:56:45.818Z,2.38
2022-08-25T01:01:49.528Z,2.40
2022-08-25T01:06:52.945Z,2.40
2022-08-25T01:11:57.198Z,2.30
2022-08-25T01:17:00.306Z,2.67
2022-08-25T01:22:05.872Z,2.92
2022-08-25T01:27:09.377Z,2.92
2022-08-25T01:32:14.229Z,3.05
2022-08-25T01:42:35.257Z,2.92
2022-08-25T01:47:38.660Z,2.17
2022-08-25T01:52:52.684Z,2.90
2022-08-25T01:57:55.693Z,2.47
2022-08-25T02:02:58.618Z,2.60
2022-08-25T02:08:02.949Z,2.55
2022-08-25T02:13:06.351Z,2.57
2022-08-25T02:18:11.786Z,2.78
2022-08-25T02:23:16.037Z,2.50
2022-08-25T02:28:18.877Z,2.70
2022-08-25T02:33:22.275Z,2.55
2022-08-25T02:38:27.977Z,2.97
2022-08-25T02:43:30.757Z,2.38
2022-08-25T02:48:33.595Z,2.25
2022-08-25T02:53:39.727Z,2.63
2022-08-25T02:58:44.216Z,2.50
2022-08-25T03:03:48.671Z,2.75
2022-08-25T03:08:53.167Z,2.40
2022-08-25T03:13:56.384Z,2.20
2022-08-25T03:18:59.645Z,2.60
2022-08-25T03:24:05.194Z,3.22
2022-08-25T03:29:08.229Z,3.00
2022-08-25T03:34:11.070Z,2.90
2022-08-25T03:39:16.077Z,2.95
2022-08-25T03:44:20.260Z,2.53
2022-08-25T03:49:24.817Z,2.73
2022-08-25T03:54:29.015Z,2.85
2022-08-25T03:59:31.843Z,3.17
2022-08-25T04:04:35.682Z,2.90
2022-08-25T04:09:39.841Z,2.83
2022-08-25T04:14:42.744Z,2.60
2022-08-25T04:19:45.546Z,3.28
2022-08-25T04:24:49.828Z,2.78
2022-08-25T04:29:52.634Z,3.20
2022-08-25T04:34:55.444Z,2.90
2022-08-25T04:39:59.611Z,2.88
2022-08-25T04:45:04.096Z,2.90
2022-08-25T04:50:08.124Z,3.00
2022-08-25T04:55:12.301Z,2.92
2022-08-25T05:00:16.699Z,3.03
2022-08-25T05:05:19.609Z,3.35
2022-08-25T05:10:24.188Z,2.75
2022-08-25T05:15:46.562Z,2.75
2022-08-25T05:20:49.898Z,2.72
2022-08-25T05:25:54.090Z,2.85
2022-08-25T05:30:59.742Z,2.50
2022-08-25T05:36:03.011Z,2.88
2022-08-25T05:41:09.803Z,3.03
2022-08-25T05:46:13.994Z,3.25
2022-08-25T05:51:17.901Z,3.47
2022-08-25T05:56:22.570Z,3.95
2022-08-25T06:01:45.881Z,3.15
2022-08-25T06:06:48.794Z,2.70
2022-08-25T06:11:55.210Z,2.38
2022-08-25T06:16:58.737Z,2.22
2022-08-25T06:22:01.682Z,2.67
2022-08-25T06:27:06.165Z,2.40
2022-08-25T06:32:08.958Z,2.42
2022-08-25T06:37:11.768Z,2.85
2022-08-25T06:42:16.099Z,2.80
2022-08-25T06:47:19.830Z,2.78
2022-08-25T06:52:22.810Z,2.92
2022-08-25T06:57:35.738Z,2.95
2022-08-25T07:02:39.488Z,2.53
2022-08-25T07:07:44.390Z,3.15
2022-08-25T07:12:48.564Z,3.58
2022-08-25T07:17:51.433Z,4.23
2022-08-25T07:22:54.200Z,4.72
2022-08-25T07:27:59.098Z,4.13
2022-08-25T07:33:05.866Z,4.78
2022-08-25T07:38:12.577Z,4.60
2022-08-25T07:43:17.813Z,3.55
2022-08-25T07:48:20.739Z,2.95
2022-08-25T07:53:23.544Z,2.80
2022-08-25T07:58:27.752Z,2.75
2022-08-25T08:03:45.079Z,3.10
2022-08-25T08:08:57.869Z,2.40
2022-08-25T08:14:03.927Z,3.15
2022-08-25T08:19:07.016Z,2.75
2022-08-25T08:24:24.771Z,3.10
2022-08-25T08:29:34.247Z,2.88
2022-08-25T08:34:38.232Z,2.83
2022-08-25T08:39:41.317Z,3.42
2022-08-25T08:44:58.043Z,3.35
2022-08-25T08:50:07.253Z,2.95
2022-08-25T08:55:20.398Z,3.15
2022-08-25T09:00:25.542Z,2.90
2022-08-25T09:05:30.619Z,2.72
2022-08-25T09:10:58.604Z,2.67
2022-08-25T09:16:33.969Z,2.95
2022-08-25T09:21:43.917Z,2.83
2022-08-25T09:26:55.102Z,2.80
2022-08-25T09:32:03.619Z,2.60
2022-08-25T09:37:06.604Z,2.67
2022-08-25T09:42:10.850Z,2.78
2022-08-25T09:47:23.157Z,2.88
2022-08-25T09:52:41.187Z,3.38
2022-08-25T09:57:49.188Z,3.60
2022-08-25T10:03:07.026Z,3.25
2022-08-25T10:08:16.298Z,4.03
2022-08-25T10:13:23.662Z,3.53
2022-08-25T10:18:30.762Z,3.63
2022-08-25T10:23:38.375Z,4.07
2022-08-25T10:28:51.989Z,2.80
2022-08-25T10:34:10.884Z,2.78
2022-08-25T10:39:36.366Z,2.95
2022-08-25T10:45:11.395Z,3.83
2022-08-25T10:50:25.786Z,3.15
2022-08-25T10:55:35.965Z,2.88
2022-08-25T11:00:50.030Z,2.08
2022-08-25T11:06:01.501Z,2.05
2022-08-25T11:11:10.537Z,2.20
2022-08-25T11:16:18.880Z,2.17
2022-08-25T11:21:28.577Z,2.30
2022-08-25T11:26:37.206Z,2.05
2022-08-25T11:31:48.352Z,1.90
2022-08-25T11:37:01.267Z,2.10
2022-08-25T11:42:18.330Z,1.65
2022-08-25T11:47:42.056Z,2.00
2022-08-25T11:52:55.912Z,2.03
2022-08-25T11:58:30.667Z,1.98
2022-08-25T12:03:54.853Z,1.92
2022-08-25T12:09:19.549Z,1.92
2022-08-25T12:14:43.872Z,2.05
2022-08-25T12:19:51.992Z,1.88
2022-08-25T12:25:06.915Z,2.10
2022-08-25T12:30:20.799Z,1.67
2022-08-25T12:35:33.101Z,2.10
2022-08-25T12:40:40.685Z,2.10
2022-08-25T12:45:46.185Z,2.10
2022-08-25T12:50:57.714Z,2.10
2022-08-25T12:56:06.826Z,2.38
2022-08-25T13:01:32.798Z,2.20
2022-08-25T13:06:53.793Z,1.92
2022-08-25T13:12:07.602Z,1.83
2022-08-25T13:17:10.793Z,1.80
2022-08-25T13:22:17.605Z,1.90
2022-08-25T13:27:25.457Z,1.80
2022-08-25T13:32:32.342Z,1.58
2022-08-25T13:37:38.455Z,1.45
2022-08-25T13:42:49.728Z,1.45
2022-08-25T13:47:56.340Z,1.55
2022-08-25T13:53:02.775Z,1.70
2022-08-25T13:58:14.614Z,1.65
2022-08-25T14:03:33.318Z,1.60
2022-08-25T14:08:38.449Z,1.48
2022-08-25T14:13:44.443Z,1.50
2022-08-25T14:18:49.942Z,1.48
2022-08-25T14:23:54.236Z,1.40
2022-08-25T14:28:58.389Z,1.70
2022-08-25T14:34:03.816Z,1.55
2022-08-25T14:39:08.603Z,1.40
2022-08-25T14:44:15.056Z,1.40
2022-08-25T14:49:24.983Z,1.30
2022-08-25T14:54:29.039Z,1.50
2022-08-25T14:59:33.421Z,1.30
2022-08-25T15:04:38.063Z,1.40
2022-08-25T15:09:42.946Z,1.55
2022-08-25T15:14:47.106Z,1.40
2022-08-25T15:19:49.914Z,1.65
2022-08-25T15:24:52.713Z,1.42
2022-08-25T15:29:56.945Z,1.40
2022-08-25T15:35:00.349Z,1.30
2022-08-25T15:40:03.492Z,1.23
2022-08-25T15:45:12.549Z,1.52
2022-08-25T15:50:21.986Z,1.40
2022-08-25T15:55:28.360Z,1.40
2022-08-25T16:00:33.039Z,1.48
2022-08-25T16:05:37.308Z,1.75
2022-08-25T16:10:42.355Z,1.40
2022-08-25T16:15:53.199Z,1.40
2022-08-25T16:20:57.321Z,1.33
2022-08-25T16:26:00.987Z,1.02
2022-08-25T16:31:07.418Z,1.17
2022-08-25T16:36:13.722Z,1.10
2022-08-25T16:41:19.407Z,1.00
2022-08-25T16:46:23.878Z,0.90
2022-08-25T16:51:29.651Z,0.90
2022-08-25T16:56:37.210Z,0.90
2022-08-25T17:01:43.147Z,1.60
2022-08-25T17:06:49.398Z,1.23
2022-08-25T17:11:56.911Z,0.82
2022-08-25T17:17:01.225Z,0.85
2022-08-25T17:22:04.033Z,1.20
2022-08-25T17:27:09.491Z,1.20
2022-08-25T17:32:13.683Z,0.80
2022-08-25T17:37:17.177Z,1.00
2022-08-25T17:42:20.880Z,1.30
2022-08-25T17:47:25.189Z,1.10
2022-08-25T17:52:28.011Z,1.30
2022-08-25T17:57:30.837Z,1.20
2022-08-25T18:02:35.137Z,1.45
2022-08-25T18:07:37.981Z,1.52
2022-08-25T18:12:40.822Z,1.70
2022-08-25T18:17:47.813Z,1.70
2022-08-25T18:22:51.369Z,2.03
2022-08-25T18:27:54.909Z,1.65
2022-08-25T18:33:00.063Z,1.40
2022-08-25T18:38:21.227Z,1.60
2022-08-25T18:43:24.122Z,1.50
2022-08-25T18:48:29.004Z,1.75
2022-08-25T18:53:49.778Z,1.80
2022-08-25T18:58:53.597Z,1.70
2022-08-25T19:03:58.143Z,1.97
2022-08-25T19:09:02.143Z,1.80
2022-08-25T19:14:12.073Z,1.60
2022-08-25T19:19:16.515Z,2.00
2022-08-25T19:24:19.717Z,1.90
2022-08-25T19:29:23.478Z,1.87
2022-08-25T19:34:30.670Z,5.72
2022-08-25T19:39:35.958Z,2.22
2022-08-25T19:44:42.529Z,3.60
2022-08-25T19:49:47.732Z,2.40
2022-08-25T19:54:52.746Z,2.10
2022-08-25T19:59:55.970Z,1.98
2022-08-25T20:05:00.870Z,1.90
2022-08-25T20:10:05.807Z,1.67
2022-08-25T20:15:10.436Z,2.10
2022-08-25T20:20:18.002Z,1.48
2022-08-25T20:25:25.177Z,1.63
2022-08-25T20:30:31.004Z,1.80
2022-08-25T20:35:35.194Z,1.35
2022-08-25T20:40:40.708Z,1.70
2022-08-25T20:45:46.388Z,2.03
2022-08-25T20:50:57.366Z,1.50
2022-08-25T20:56:00.677Z,1.65
2022-08-25T21:01:03.558Z,2.95
2022-08-25T21:06:09.417Z,1.67
2022-08-25T21:11:13.133Z,3.88
2022-08-25T21:16:17.850Z,1.50
2022-08-25T21:21:23.853Z,1.45
2022-08-25T21:26:30.568Z,1.63
2022-08-25T21:31:33.785Z,1.80
2022-08-25T21:36:37.970Z,1.87
2022-08-25T21:41:43.014Z,1.48
2022-08-25T21:52:00.993Z,2.17
2022-08-25T21:57:06.824Z,2.50
2022-08-25T22:02:13.105Z,2.00
2022-08-25T22:07:17.432Z,2.47
2022-08-25T22:12:20.460Z,2.47
2022-08-25T22:17:24.511Z,1.88
2022-08-25T22:22:29.034Z,1.95
2022-08-25T22:27:31.875Z,2.40
2022-08-25T22:32:34.854Z,2.55
2022-08-25T22:37:39.027Z,2.28
2022-08-25T22:42:47.801Z,2.25
2022-08-25T22:47:52.195Z,2.47
2022-08-25T22:52:57.571Z,2.20
2022-08-25T22:58:01.030Z,2.30
2022-08-25T23:03:03.903Z,2.40
2022-08-25T23:08:10.961Z,1.90
2022-08-25T23:18:40.546Z,2.30
2022-08-25T23:23:47.950Z,2.67
2022-08-25T23:28:52.279Z,2.75
2022-08-25T23:33:55.142Z,2.33
2022-08-25T23:38:59.331Z,1.90
2022-08-25T23:49:09.263Z,2.50
2022-08-25T23:54:13.911Z,2.33
2022-08-25T23:59:17.070Z,2.42
